Time;durP1;ratioP1;P1;durP2;ratioP2;P2;SDS_P1;SDS_P2;PMS_P1;PMS_P2;Temp;Humidity;BMP_temperature;BMP_pressure;BME280_temperature;BME280_humidity;BME280_pressure;Samples;Min_cycle;Max_cycle;Signal;HPM_P1;HPM_P2
2022/04/19 00:02:16;;;;;;;16.70;6.63;;;;;;;5.79;100.00;99327.47;31367332;28;20055;-72
2022/04/19 00:17:19;;;;;;;19.20;6.37;;;;;;;5.73;100.00;99337.94;31375173;28;20053;-73
2022/04/19 00:32:21;;;;;;;16.60;7.23;;;;;;;5.69;100.00;99318.34;31355488;28;20053;-75
2022/04/19 00:47:23;;;;;;;18.90;7.70;;;;;;;5.61;100.00;99310.78;31351023;28;20106;-73
2022/04/19 01:02:25;;;;;;;21.27;7.70;;;;;;;5.43;100.00;99298.28;31353475;28;20045;-72
2022/04/19 01:17:28;;;;;;;20.90;8.80;;;;;;;5.39;100.00;99286.06;31359959;28;20110;-72
2022/04/19 01:32:31;;;;;;;20.57;9.00;;;;;;;5.41;100.00;99307.94;31380285;28;20522;-73
2022/04/19 01:47:34;;;;;;;27.23;9.93;;;;;;;5.41;100.00;99302.56;31368186;28;20699;-73
2022/04/19 02:02:36;;;;;;;28.03;9.83;;;;;;;5.52;100.00;99318.56;31359146;28;20048;-71
2022/04/19 02:17:47;;;;;;;24.37;10.27;;;;;;;5.45;100.00;99271.72;31370529;28;20063;-72
2022/04/19 02:32:50;;;;;;;22.37;9.33;;;;;;;5.45;100.00;99301.34;31363115;28;20049;-74
2022/04/19 02:48:04;;;;;;;29.40;9.60;;;;;;;5.52;100.00;99308.56;31366733;28;20060;-73
2022/04/19 03:03:08;;;;;;;20.43;8.93;;;;;;;5.54;100.00;99289.31;31327059;28;20083;-73
2022/04/19 03:18:10;;;;;;;21.43;8.80;;;;;;;5.63;100.00;99276.91;31361925;28;20146;-73
2022/04/19 03:33:12;;;;;;;23.37;9.57;;;;;;;5.72;100.00;99314.09;31374466;28;20516;-74
2022/04/19 03:48:14;;;;;;;18.63;8.23;;;;;;;5.89;100.00;99320.47;31379774;28;20056;-73
2022/04/19 04:03:16;;;;;;;21.53;8.20;;;;;;;5.90;100.00;99311.97;31390077;28;20056;-73
2022/04/19 04:18:18;;;;;;;18.20;9.30;;;;;;;5.93;100.00;99348.88;31369306;28;20048;-73
2022/04/19 04:33:21;;;;;;;19.80;8.90;;;;;;;6.06;100.00;99335.63;31369869;28;20040;-72
2022/04/19 05:03:44;;;;;;;19.50;9.17;;;;;;;6.13;100.00;99387.50;31343196;28;20053;-73
2022/04/19 05:18:46;;;;;;;20.17;8.97;;;;;;;6.13;100.00;99400.22;31379153;28;20049;-73
2022/04/19 05:33:48;;;;;;;25.47;9.10;;;;;;;6.11;100.00;99348.66;31354725;28;20051;-74
2022/04/19 05:48:50;;;;;;;17.23;8.47;;;;;;;6.19;100.00;99355.44;31379310;28;20538;-72
2022/04/19 06:19:12;;;;;;;16.20;8.27;;;;;;;6.26;100.00;99328.41;31384218;28;20193;-80
2022/04/19 06:34:14;;;;;;;13.70;7.53;;;;;;;6.63;100.00;99302.41;31374176;28;20516;-80
2022/04/19 06:49:17;;;;;;;14.53;7.93;;;;;;;6.88;100.00;99243.41;31461567;28;20049;-79
2022/04/19 07:04:19;;;;;;;14.87;7.80;;;;;;;7.68;100.00;99244.88;31458863;28;20040;-79
2022/04/19 07:19:21;;;;;;;14.33;8.27;;;;;;;8.37;100.00;99288.91;31457223;28;20104;-79
2022/04/19 07:34:24;;;;;;;15.50;9.30;;;;;;;7.90;100.00;99363.31;31423052;28;20131;-76
2022/04/19 07:49:26;;;;;;;16.47;9.80;;;;;;;7.79;100.00;99369.72;31387783;28;20413;-77
2022/04/19 08:04:28;;;;;;;15.57;8.83;;;;;;;7.51;100.00;99424.28;31364773;28;20481;-76
2022/04/19 08:19:35;;;;;;;31.77;15.07;;;;;;;7.85;100.00;99454.50;31376958;28;20057;-78
2022/04/19 08:34:38;;;;;;;17.40;10.27;;;;;;;8.14;100.00;99459.38;31372576;28;20045;-78
2022/04/19 08:49:42;;;;;;;15.27;9.97;;;;;;;8.30;100.00;99447.81;31358545;28;20057;-76
2022/04/19 09:04:44;;;;;;;15.47;10.50;;;;;;;8.35;100.00;99391.34;31350972;28;20049;-75
2022/04/19 09:19:46;;;;;;;15.83;10.00;;;;;;;8.17;100.00;99437.66;31336079;28;20048;-75
2022/04/19 09:34:48;;;;;;;15.00;9.00;;;;;;;8.13;100.00;99452.44;31351039;28;20049;-76
2022/04/19 09:49:54;;;;;;;14.77;8.73;;;;;;;8.05;100.00;99475.38;31366251;28;20060;-79
2022/04/19 10:20:32;;;;;;;11.37;8.10;;;;;;;7.94;100.00;99488.34;31367106;28;20143;-75
2022/04/19 10:36:10;;;;;;;11.60;6.30;;;;;;;8.15;100.00;99550.09;31399633;28;20083;-76
2022/04/19 10:51:28;;;;;;;7.53;5.20;;;;;;;8.17;100.00;99532.28;31379412;28;20080;-75
2022/04/19 11:06:40;;;;;;;7.73;3.83;;;;;;;8.33;100.00;99518.09;31364174;28;20124;-78
2022/04/19 11:21:58;;;;;;;7.10;5.20;;;;;;;8.22;100.00;99493.19;31387515;28;20523;-77
2022/04/19 11:37:04;;;;;;;6.10;4.30;;;;;;;8.07;100.00;99497.34;31354580;28;20057;-75
2022/04/19 11:52:11;;;;;;;5.07;3.10;;;;;;;7.95;100.00;99570.94;31396632;28;20119;-74
2022/04/19 12:07:13;;;;;;;3.50;2.10;;;;;;;7.96;100.00;99540.03;31373212;28;20064;-77
2022/04/19 12:22:19;;;;;;;5.37;2.00;;;;;;;8.32;100.00;99557.13;31382146;28;20488;-78
2022/04/19 12:37:21;;;;;;;34.20;12.70;;;;;;;8.76;100.00;99560.50;31359684;28;20081;-78
2022/04/19 12:52:31;;;;;;;4.43;2.07;;;;;;;8.61;100.00;99572.81;31344790;28;20045;-76
2022/04/19 13:22:55;;;;;;;2.50;1.80;;;;;;;8.75;100.00;99540.03;31351135;28;20041;-80
2022/04/19 13:53:18;;;;;;;4.13;2.93;;;;;;;8.85;100.00;99522.81;31344685;28;20856;-76
2022/04/19 14:08:20;;;;;;;7.93;3.07;;;;;;;8.86;100.00;99518.94;31361015;28;20408;-77
2022/04/19 14:23:22;;;;;;;6.00;3.67;;;;;;;8.68;100.00;99508.50;31340296;28;20048;-78
2022/04/19 14:38:24;;;;;;;8.17;4.10;;;;;;;8.55;100.00;99521.91;31347376;28;20053;-78
2022/04/19 14:53:26;;;;;;;7.53;4.53;;;;;;;8.54;100.00;99539.31;31381867;28;20064;-76
2022/04/19 15:08:29;;;;;;;10.20;5.70;;;;;;;8.52;100.00;99555.19;31361921;28;20088;-80
2022/04/19 15:23:36;;;;;;;8.13;5.00;;;;;;;8.50;100.00;99557.53;31354157;28;20076;-76
2022/04/19 15:38:38;;;;;;;9.73;5.17;;;;;;;8.42;100.00;99582.47;31330619;28;20092;-75
2022/04/19 15:53:40;;;;;;;9.40;5.20;;;;;;;8.32;100.00;99540.91;31339127;28;20073;-79
2022/04/19 16:08:42;;;;;;;12.07;5.87;;;;;;;8.21;100.00;99551.91;31362743;28;20161;-75
2022/04/19 16:23:44;;;;;;;9.40;4.70;;;;;;;8.17;100.00;99537.69;31344442;28;20053;-75
2022/04/19 16:38:45;;;;;;;8.27;5.00;;;;;;;8.07;100.00;99535.19;31335864;28;20143;-79
2022/04/19 16:53:47;;;;;;;13.00;5.50;;;;;;;8.11;100.00;99552.09;31370946;28;20477;-80
2022/04/19 17:08:49;;;;;;;11.33;6.43;;;;;;;8.04;100.00;99601.66;31368476;28;20080;-79
2022/04/19 17:23:51;;;;;;;36.07;13.67;;;;;;;8.12;100.00;99629.31;31374626;28;20045;-79
2022/04/19 17:38:55;;;;;;;9.53;5.17;;;;;;;8.08;100.00;99637.50;31381829;28;20526;-80
2022/04/19 18:09:17;;;;;;;13.00;5.23;;;;;;;8.12;100.00;99653.66;31414646;28;20044;-81
2022/04/19 18:39:39;;;;;;;10.90;4.73;;;;;;;8.06;100.00;99674.22;31334357;28;20052;-81
2022/04/19 18:54:41;;;;;;;14.70;6.70;;;;;;;7.97;100.00;99663.97;31416852;28;20159;-80
2022/04/19 19:09:43;;;;;;;15.23;5.80;;;;;;;7.91;100.00;99667.53;31380091;28;20053;-79
2022/04/19 19:24:45;;;;;;;14.07;6.23;;;;;;;7.85;100.00;99681.50;31379419;28;20132;-78
2022/04/19 19:39:48;;;;;;;18.13;8.60;;;;;;;7.83;100.00;99693.88;31366967;28;21127;-77
2022/04/19 19:54:49;;;;;;;19.23;7.60;;;;;;;7.90;100.00;99706.53;31376074;28;20060;-77
2022/04/19 20:09:52;;;;;;;12.87;5.83;;;;;;;7.95;100.00;99714.19;31376052;28;20071;-78
2022/04/19 20:24:54;;;;;;;18.00;6.77;;;;;;;7.92;100.00;99680.63;31381657;28;20504;-70
2022/04/19 20:39:56;;;;;;;32.57;15.73;;;;;;;7.93;100.00;99659.78;31351282;28;20481;-70
2022/04/19 20:54:58;;;;;;;16.20;6.07;;;;;;;7.88;100.00;99664.47;31377450;28;20049;-70
2022/04/19 21:10:01;;;;;;;12.87;5.73;;;;;;;7.79;100.00;99656.13;31333127;28;20068;-70
2022/04/19 21:25:11;;;;;;;15.60;6.13;;;;;;;7.80;100.00;99652.22;31360405;28;20049;-70
2022/04/19 21:40:13;;;;;;;13.87;6.77;;;;;;;7.75;100.00;99671.63;31382466;28;20508;-70
2022/04/19 21:55:15;;;;;;;13.87;6.43;;;;;;;7.75;100.00;99666.22;31362926;28;20041;-70
2022/04/19 22:10:16;;;;;;;18.47;7.23;;;;;;;7.69;100.00;99635.44;31366779;28;20588;-70
2022/04/19 22:25:18;;;;;;;11.63;5.53;;;;;;;7.70;100.00;99666.69;31367509;28;20143;-70
2022/04/19 22:40:20;;;;;;;12.13;6.23;;;;;;;7.73;100.00;99676.69;31354184;28;20063;-69
2022/04/19 22:55:22;;;;;;;17.17;8.20;;;;;;;7.78;100.00;99660.00;31342729;28;20057;-71
2022/04/19 23:10:24;;;;;;;12.53;5.83;;;;;;;7.62;100.00;99667.94;31366000;28;20049;-70
2022/04/19 23:25:26;;;;;;;13.83;5.97;;;;;;;7.58;100.00;99688.84;31338143;28;20531;-70
2022/04/19 23:40:28;;;;;;;13.37;6.20;;;;;;;7.66;100.00;99694.91;31374425;28;20067;-70
2022/04/19 23:55:30;;;;;;;11.83;6.13;;;;;;;7.67;100.00;99691.06;31350957;28;20053;-70
